Time;durP1;ratioP1;P1;durP2;ratioP2;P2;SDS_P1;SDS_P2;PMS_P1;PMS_P2;Temp;Humidity;BMP_temperature;BMP_pressure;BME280_temperature;BME280_humidity;BME280_pressure;Samples;Min_cycle;Max_cycle;Signal;HPM_P1;HPM_P2
2022/07/25 00:00:23;;;;;;;5.37;4.27;;;25.80;76.00;;;;;;5116838;28;20176;-94
2022/07/25 00:02:49;;;;;;;4.30;3.90;;;25.80;76.30;;;;;;5118753;28;20215;-93
2022/07/25 00:05:14;;;;;;;4.93;4.43;;;25.80;76.50;;;;;;5116935;28;20408;-94
2022/07/25 00:07:40;;;;;;;4.63;4.03;;;25.70;76.50;;;;;;5116670;28;20205;-93
2022/07/25 00:10:06;;;;;;;5.30;4.60;;;25.70;76.60;;;;;;5116726;28;20176;-93
2022/07/25 00:12:32;;;;;;;4.57;4.13;;;25.70;76.70;;;;;;5116938;28;20214;-94
2022/07/25 00:14:58;;;;;;;5.50;4.10;;;25.60;76.90;;;;;;5119868;28;20428;-93
2022/07/25 00:17:23;;;;;;;5.20;4.60;;;25.60;77.10;;;;;;5116565;28;20222;-94
2022/07/25 00:19:49;;;;;;;5.50;4.57;;;25.60;77.50;;;;;;5116606;28;20187;-93
2022/07/25 00:22:15;;;;;;;4.80;4.40;;;25.50;77.80;;;;;;5117803;28;20202;-93
2022/07/25 00:24:41;;;;;;;5.20;4.77;;;25.50;78.10;;;;;;5116987;28;20218;-93
2022/07/25 00:27:06;;;;;;;5.23;4.70;;;25.50;78.50;;;;;;5117528;28;20237;-94
2022/07/25 00:29:32;;;;;;;6.13;4.83;;;25.50;78.90;;;;;;5117917;28;20352;-93
2022/07/25 00:31:58;;;;;;;7.27;5.60;;;25.40;79.10;;;;;;5116296;28;20199;-93
2022/07/25 00:34:24;;;;;;;8.60;5.97;;;25.40;79.30;;;;;;5116337;28;20206;-93
2022/07/25 00:36:49;;;;;;;5.83;5.23;;;25.40;79.60;;;;;;5117414;28;20200;-94
2022/07/25 00:39:15;;;;;;;5.07;4.57;;;25.30;79.80;;;;;;5117763;28;20183;-93
2022/07/25 00:41:43;;;;;;;5.77;5.17;;;25.30;80.00;;;;;;5117055;28;20569;-93
2022/07/25 00:44:09;;;;;;;6.17;5.57;;;25.30;80.40;;;;;;5115719;28;20214;-93
2022/07/25 00:46:38;;;;;;;6.27;5.67;;;25.20;80.50;;;;;;5117093;28;20488;-93
2022/07/25 00:49:03;;;;;;;7.97;5.40;;;25.20;80.70;;;;;;5116198;28;20928;-94
2022/07/25 00:51:32;;;;;;;8.90;5.20;;;25.20;81.00;;;;;;5118305;28;20450;-94
2022/07/25 00:53:58;;;;;;;7.10;5.83;;;25.20;81.30;;;;;;5117639;28;20171;-94
2022/07/25 00:56:24;;;;;;;6.20;5.60;;;25.10;81.40;;;;;;5115974;28;20797;-94
2022/07/25 00:58:49;;;;;;;8.10;5.60;;;25.10;81.60;;;;;;5121007;28;20175;-93
2022/07/25 01:01:15;;;;;;;5.97;5.37;;;25.10;81.80;;;;;;5122526;28;20171;-93
2022/07/25 01:03:41;;;;;;;6.93;6.30;;;25.10;82.10;;;;;;5120627;28;20218;-93
2022/07/25 01:06:07;;;;;;;6.33;5.23;;;25.00;82.20;;;;;;5117186;28;20183;-94
2022/07/25 01:08:33;;;;;;;8.30;5.73;;;25.00;82.40;;;;;;5118808;28;20462;-93
2022/07/25 01:10:59;;;;;;;6.83;6.10;;;25.00;82.60;;;;;;5115485;28;20424;-93
2022/07/25 01:13:25;;;;;;;6.90;5.40;;;25.00;82.70;;;;;;5115558;28;20404;-93
2022/07/25 01:15:51;;;;;;;8.07;5.57;;;25.00;82.70;;;;;;5116638;28;20182;-93
2022/07/25 01:18:16;;;;;;;6.47;5.87;;;24.90;82.70;;;;;;5118126;28;20318;-93
2022/07/25 01:20:42;;;;;;;8.40;6.77;;;24.90;82.70;;;;;;5115474;28;20209;-93
2022/07/25 01:23:08;;;;;;;8.20;6.80;;;24.90;82.80;;;;;;5115018;28;20711;-94
2022/07/25 01:25:33;;;;;;;6.23;5.00;;;24.80;82.80;;;;;;5115156;28;20179;-94
2022/07/25 01:27:59;;;;;;;8.07;6.03;;;24.80;82.90;;;;;;5115005;28;20743;-93
2022/07/25 01:30:25;;;;;;;7.63;5.93;;;24.70;82.80;;;;;;5116746;28;20662;-93
2022/07/25 01:32:51;;;;;;;6.17;5.57;;;24.70;83.10;;;;;;5115244;28;20199;-94
2022/07/25 01:35:17;;;;;;;6.50;5.23;;;24.60;83.20;;;;;;5115019;28;20197;-93
2022/07/25 01:37:43;;;;;;;7.10;5.97;;;24.60;83.40;;;;;;5114927;28;20430;-94
2022/07/25 01:40:09;;;;;;;7.20;6.43;;;24.60;83.60;;;;;;5114745;28;20206;-94
2022/07/25 01:42:35;;;;;;;8.10;6.20;;;24.50;83.70;;;;;;5114672;28;20678;-94
2022/07/25 01:45:03;;;;;;;6.87;5.40;;;24.50;83.80;;;;;;5116148;28;20446;-93
2022/07/25 01:47:29;;;;;;;8.00;6.23;;;24.40;84.10;;;;;;5114905;28;20446;-93
2022/07/25 01:49:55;;;;;;;5.67;5.07;;;24.40;84.30;;;;;;5114558;28;20409;-93
2022/07/25 01:52:20;;;;;;;7.70;5.63;;;24.40;84.70;;;;;;5114902;28;20201;-93
2022/07/25 01:54:46;;;;;;;7.03;6.37;;;24.30;84.70;;;;;;5115149;28;20662;-93
2022/07/25 01:57:12;;;;;;;7.30;5.70;;;24.30;84.70;;;;;;5118294;28;20198;-93
2022/07/25 01:59:40;;;;;;;6.83;6.13;;;24.30;84.80;;;;;;5115930;28;20222;-92
2022/07/25 02:02:07;;;;;;;7.97;6.17;;;24.20;84.90;;;;;;5115556;28;20278;-94
2022/07/25 02:04:34;;;;;;;6.77;6.07;;;24.20;85.00;;;;;;5114970;28;20473;-92
2022/07/25 02:07:00;;;;;;;6.40;5.40;;;24.20;85.10;;;;;;5115327;28;20438;-94
2022/07/25 02:09:26;;;;;;;7.33;5.73;;;24.20;85.30;;;;;;5123922;28;20537;-94
2022/07/25 02:11:52;;;;;;;6.73;6.00;;;24.10;85.30;;;;;;5117886;28;20200;-93
2022/07/25 02:14:17;;;;;;;7.33;6.40;;;24.10;85.50;;;;;;5115033;28;20801;-91
2022/07/25 02:16:43;;;;;;;6.80;6.10;;;24.10;85.40;;;;;;5114465;28;20309;-94
2022/07/25 02:19:09;;;;;;;5.93;5.33;;;24.10;85.50;;;;;;5114392;28;20184;-94
2022/07/25 02:21:35;;;;;;;7.73;5.90;;;24.00;85.60;;;;;;5115498;28;20229;-93
2022/07/25 02:24:01;;;;;;;7.63;6.67;;;24.00;85.80;;;;;;5115201;28;20729;-93
2022/07/25 02:26:26;;;;;;;7.23;5.50;;;24.00;86.00;;;;;;5114261;28;20485;-94
2022/07/25 02:28:52;;;;;;;7.90;6.00;;;24.00;85.80;;;;;;5115805;28;20190;-93
2022/07/25 02:31:18;;;;;;;6.67;5.60;;;23.90;85.60;;;;;;5120741;28;20200;-93
2022/07/25 02:33:44;;;;;;;6.57;5.40;;;23.90;85.60;;;;;;5121925;28;20257;-92
2022/07/25 02:36:10;;;;;;;6.50;5.90;;;23.90;85.80;;;;;;5121171;28;20267;-94
2022/07/25 02:38:36;;;;;;;6.00;5.20;;;23.90;86.10;;;;;;5122046;27;20687;-92
2022/07/25 02:41:02;;;;;;;6.73;5.90;;;23.90;86.40;;;;;;5120823;28;20558;-93
2022/07/25 02:43:27;;;;;;;7.93;5.80;;;23.80;86.50;;;;;;5121738;27;20458;-92
2022/07/25 02:45:53;;;;;;;8.93;5.60;;;23.80;86.40;;;;;;5121053;28;20184;-93
2022/07/25 02:48:19;;;;;;;8.90;5.90;;;23.80;86.60;;;;;;5122268;28;20200;-92
2022/07/25 02:50:45;;;;;;;7.80;5.57;;;23.80;86.60;;;;;;5120898;28;20185;-93
2022/07/25 02:53:10;;;;;;;7.07;5.70;;;23.70;86.80;;;;;;5120682;28;20201;-93
2022/07/25 02:55:36;;;;;;;6.93;5.00;;;23.70;86.90;;;;;;5120876;28;20652;-94
2022/07/25 02:58:02;;;;;;;8.03;5.90;;;23.70;87.00;;;;;;5121796;27;20560;-93
2022/07/25 03:00:29;;;;;;;8.20;6.07;;;23.70;86.60;;;;;;5122937;28;20170;-93
2022/07/25 03:02:57;;;;;;;13.60;6.73;;;23.60;86.40;;;;;;5120502;28;20209;-93
2022/07/25 03:05:23;;;;;;;7.97;5.43;;;23.60;86.40;;;;;;5120794;28;20409;-94
2022/07/25 03:07:49;;;;;;;6.43;5.17;;;23.60;86.50;;;;;;5121400;27;20432;-93
2022/07/25 03:10:15;;;;;;;7.17;5.57;;;23.50;86.50;;;;;;5122998;28;20922;-94
2022/07/25 03:12:41;;;;;;;7.13;5.40;;;23.60;86.50;;;;;;5121765;27;20606;-93
2022/07/25 03:15:10;;;;;;;6.80;5.67;;;23.60;86.40;;;;;;5120678;28;20447;-93
2022/07/25 03:17:36;;;;;;;6.60;5.50;;;23.60;86.40;;;;;;5121576;27;20436;-93
2022/07/25 03:20:02;;;;;;;7.30;6.00;;;23.60;86.30;;;;;;5120357;28;20415;-93
2022/07/25 03:22:27;;;;;;;6.13;5.30;;;23.60;86.30;;;;;;5120643;28;20439;-93
2022/07/25 03:24:53;;;;;;;6.97;5.63;;;23.60;86.40;;;;;;5124873;27;20416;-92
2022/07/25 03:27:19;;;;;;;7.10;5.80;;;23.50;86.30;;;;;;5122605;28;20322;-93
2022/07/25 03:29:45;;;;;;;6.40;5.20;;;23.50;86.30;;;;;;5120519;28;20184;-93
2022/07/25 03:32:11;;;;;;;8.13;5.47;;;23.50;86.30;;;;;;5121718;27;20429;-94
2022/07/25 03:34:36;;;;;;;6.60;5.37;;;23.50;86.30;;;;;;5120633;28;20588;-94
2022/07/25 03:37:03;;;;;;;7.77;5.43;;;23.50;86.30;;;;;;5121625;28;20646;-94
2022/07/25 03:39:32;;;;;;;6.00;5.03;;;23.50;86.20;;;;;;5121623;28;20188;-93
2022/07/25 03:41:57;;;;;;;7.63;5.23;;;23.50;86.10;;;;;;5116949;28;20447;-93
2022/07/25 03:44:24;;;;;;;7.43;5.43;;;23.50;86.20;;;;;;5118099;28;20471;-93
2022/07/25 03:46:50;;;;;;;64.43;45.70;;;23.50;86.10;;;;;;5117317;28;20294;-94
2022/07/25 03:49:17;;;;;;;106.97;58.53;;;23.50;86.20;;;;;;5122320;28;20416;-93
2022/07/25 03:51:43;;;;;;;26.00;18.63;;;23.50;86.30;;;;;;5117290;28;20445;-94
2022/07/25 03:54:12;;;;;;;11.20;6.60;;;23.50;86.20;;;;;;5117116;28;20425;-93
2022/07/25 03:56:44;;;;;;;5.50;5.00;;;23.50;86.20;;;;;;5118188;28;20445;-94
2022/07/25 03:59:11;;;;;;;6.97;4.87;;;23.50;86.20;;;;;;5118038;28;20393;-93
2022/07/25 04:01:37;;;;;;;6.50;5.80;;;23.50;86.10;;;;;;5118033;28;20432;-94
2022/07/25 04:04:04;;;;;;;6.43;5.77;;;23.50;86.10;;;;;;5117706;28;20479;-93
2022/07/25 04:06:30;;;;;;;6.80;5.60;;;23.50;86.10;;;;;;5118197;28;20193;-94
2022/07/25 04:08:57;;;;;;;6.90;5.10;;;23.50;86.20;;;;;;5116522;28;20456;-93
2022/07/25 04:11:23;;;;;;;7.10;5.10;;;23.50;86.30;;;;;;5116345;28;20979;-93
2022/07/25 04:13:49;;;;;;;5.07;4.50;;;23.50;86.50;;;;;;5116499;28;20451;-93
2022/07/25 04:16:15;;;;;;;7.00;5.17;;;23.50;86.60;;;;;;5122679;27;20431;-93
2022/07/25 04:18:41;;;;;;;5.63;4.93;;;23.40;86.60;;;;;;5117017;28;20421;-93
2022/07/25 04:21:07;;;;;;;7.57;5.33;;;23.50;86.70;;;;;;5113561;28;20451;-93
2022/07/25 04:23:33;;;;;;;9.63;5.67;;;23.50;86.70;;;;;;5097330;28;20250;-93
2022/07/25 04:25:59;;;;;;;8.27;5.73;;;23.50;86.80;;;;;;5095764;28;20480;-93
2022/07/25 04:28:25;;;;;;;5.30;4.80;;;23.50;86.80;;;;;;5107700;28;20465;-92
2022/07/25 04:30:52;;;;;;;6.80;5.30;;;23.50;86.80;;;;;;5099204;28;20184;-93
2022/07/25 04:33:18;;;;;;;7.70;4.63;;;23.50;86.70;;;;;;5112046;28;20465;-92
2022/07/25 04:35:44;;;;;;;6.10;5.50;;;23.50;86.60;;;;;;5115200;28;20436;-93
2022/07/25 04:38:10;;;;;;;5.73;5.13;;;23.50;86.60;;;;;;5115064;28;20429;-93
2022/07/25 04:40:36;;;;;;;7.73;5.07;;;23.50;86.70;;;;;;5115514;28;20495;-93
2022/07/25 04:43:02;;;;;;;5.47;4.57;;;23.50;86.60;;;;;;5116017;28;20546;-93
2022/07/25 04:45:27;;;;;;;4.97;4.50;;;23.50;86.30;;;;;;5115256;28;20427;-92
2022/07/25 04:47:53;;;;;;;7.77;4.70;;;23.50;86.40;;;;;;5116249;28;20188;-93
2022/07/25 04:50:19;;;;;;;4.90;4.43;;;23.50;86.90;;;;;;5116573;28;20541;-93
2022/07/25 04:52:45;;;;;;;12.93;5.83;;;23.60;88.20;;;;;;5114787;28;20667;-93
2022/07/25 04:55:11;;;;;;;7.60;5.37;;;23.60;88.30;;;;;;5110407;28;20173;-93
2022/07/25 04:57:37;;;;;;;6.13;5.17;;;23.60;88.90;;;;;;5094457;28;20205;-93
2022/07/25 05:00:07;;;;;;;4.53;4.10;;;23.70;88.80;;;;;;5095266;28;20945;-94
2022/07/25 05:02:33;;;;;;;5.60;4.57;;;23.70;88.80;;;;;;5094249;28;20473;-94
2022/07/25 05:04:59;;;;;;;5.07;4.67;;;23.70;88.90;;;;;;5094743;28;20923;-93
2022/07/25 05:07:25;;;;;;;5.53;4.90;;;23.80;89.10;;;;;;5096961;28;20518;-93
2022/07/25 05:09:51;;;;;;;5.40;4.70;;;23.80;88.80;;;;;;5094071;28;20678;-94
2022/07/25 05:12:17;;;;;;;4.87;4.47;;;23.90;88.90;;;;;;5093972;28;20470;-92
2022/07/25 05:14:43;;;;;;;4.53;3.97;;;24.00;88.80;;;;;;5093978;28;20750;-92
2022/07/25 05:17:09;;;;;;;10.30;4.43;;;24.00;88.70;;;;;;5095519;28;20220;-94
2022/07/25 05:19:35;;;;;;;5.50;4.77;;;24.10;88.80;;;;;;5096475;28;20834;-91
2022/07/25 05:22:01;;;;;;;5.00;4.57;;;24.10;88.70;;;;;;5096462;28;20267;-93
2022/07/25 05:24:27;;;;;;;4.97;4.50;;;24.20;88.50;;;;;;5107573;28;20218;-91
2022/07/25 05:26:53;;;;;;;6.00;3.80;;;24.30;88.20;;;;;;5103666;28;20453;-94
2022/07/25 05:29:19;;;;;;;4.60;4.20;;;24.40;88.20;;;;;;5109893;28;20222;-92
2022/07/25 05:31:45;;;;;;;4.77;4.37;;;24.40;87.70;;;;;;5096558;28;20260;-93
2022/07/25 05:34:10;;;;;;;4.40;4.00;;;24.50;88.00;;;;;;5113519;28;20436;-91
2022/07/25 05:36:36;;;;;;;3.87;3.50;;;24.60;87.80;;;;;;5099980;28;20202;-93
2022/07/25 05:39:03;;;;;;;4.80;4.30;;;24.70;87.90;;;;;;5111155;28;20802;-93
2022/07/25 05:41:28;;;;;;;5.50;4.50;;;24.70;87.30;;;;;;5097024;28;20718;-93
2022/07/25 05:43:54;;;;;;;5.20;4.10;;;24.70;87.10;;;;;;5097688;28;20467;-92
2022/07/25 05:46:20;;;;;;;5.23;4.57;;;24.80;87.00;;;;;;5098215;28;20202;-93
2022/07/25 05:48:45;;;;;;;4.17;3.77;;;24.90;87.30;;;;;;5111090;28;20194;-94
2022/07/25 05:51:11;;;;;;;5.10;4.40;;;25.00;87.20;;;;;;5104741;28;20178;-94
2022/07/25 05:53:38;;;;;;;5.27;3.90;;;25.00;86.90;;;;;;5101054;28;20659;-93
2022/07/25 05:56:04;;;;;;;4.80;4.40;;;25.10;86.70;;;;;;5108270;28;20720;-93
2022/07/25 05:58:30;;;;;;;6.40;4.97;;;25.10;86.30;;;;;;5094787;28;20426;-92
2022/07/25 06:00:56;;;;;;;4.97;4.53;;;25.20;85.90;;;;;;5093863;28;20781;-93
2022/07/25 06:03:22;;;;;;;4.67;4.27;;;25.20;85.70;;;;;;5097863;28;20207;-93
2022/07/25 06:05:48;;;;;;;5.27;4.30;;;25.30;85.50;;;;;;5109569;28;20423;-92
2022/07/25 06:08:14;;;;;;;5.43;4.63;;;25.30;85.50;;;;;;5103202;28;20326;-93
2022/07/25 06:10:41;;;;;;;4.40;4.00;;;25.40;85.10;;;;;;5121192;27;20427;-93
2022/07/25 06:13:06;;;;;;;5.40;4.40;;;25.40;84.80;;;;;;5103392;28;20440;-93
2022/07/25 06:15:32;;;;;;;4.47;4.07;;;25.50;84.80;;;;;;5095808;28;20464;-94
2022/07/25 06:17:58;;;;;;;5.07;3.93;;;25.50;84.50;;;;;;5091954;28;20210;-94
2022/07/25 06:20:24;;;;;;;346.97;203.73;;;25.60;84.30;;;;;;5092086;28;20317;-93
2022/07/25 06:22:50;;;;;;;61.30;37.13;;;25.70;84.60;;;;;;5093522;28;20440;-94
2022/07/25 06:25:15;;;;;;;11.63;7.90;;;25.80;84.60;;;;;;5100791;28;20641;-94
2022/07/25 06:27:41;;;;;;;4.57;4.17;;;25.80;84.30;;;;;;5109913;28;20571;-93
2022/07/25 06:30:08;;;;;;;5.43;3.87;;;25.90;84.40;;;;;;5101284;28;20171;-93
2022/07/25 06:32:34;;;;;;;4.23;3.80;;;26.00;84.10;;;;;;5102534;28;20298;-94
2022/07/25 06:35:00;;;;;;;3.93;3.63;;;26.10;83.60;;;;;;5098742;28;20861;-91
2022/07/25 06:37:26;;;;;;;4.27;3.87;;;26.20;82.80;;;;;;5109778;28;20700;-94
2022/07/25 06:39:51;;;;;;;3.93;3.60;;;26.30;82.70;;;;;;5109593;28;20576;-94
2022/07/25 06:42:17;;;;;;;4.97;3.63;;;26.40;82.70;;;;;;5105979;28;20256;-94
2022/07/25 06:44:43;;;;;;;4.23;3.83;;;26.40;83.00;;;;;;5109384;28;20219;-94
2022/07/25 06:47:11;;;;;;;3.40;3.10;;;26.50;82.50;;;;;;5104106;28;20195;-94
2022/07/25 06:49:38;;;;;;;3.60;3.30;;;26.60;82.10;;;;;;5090789;28;20809;-94
2022/07/25 06:52:05;;;;;;;4.80;3.43;;;26.70;81.40;;;;;;5102597;28;20464;-93
2022/07/25 06:54:30;;;;;;;5.23;3.30;;;26.70;80.80;;;;;;5103676;28;20827;-93
2022/07/25 06:56:56;;;;;;;3.90;3.60;;;26.80;79.80;;;;;;5098694;28;20461;-93
2022/07/25 06:59:22;;;;;;;3.93;3.60;;;26.90;79.90;;;;;;5091684;28;20207;-93
2022/07/25 07:01:48;;;;;;;6.30;4.20;;;26.90;80.40;;;;;;5100492;28;20531;-94
2022/07/25 07:04:13;;;;;;;3.90;3.60;;;27.00;80.40;;;;;;5094763;28;20249;-93
2022/07/25 07:06:39;;;;;;;4.73;3.53;;;27.10;79.60;;;;;;5102444;28;20237;-93
2022/07/25 07:09:05;;;;;;;5.30;3.77;;;27.10;80.00;;;;;;5098471;28;20231;-94
2022/07/25 07:11:33;;;;;;;4.27;3.40;;;27.10;80.40;;;;;;5108591;28;20208;-94
2022/07/25 07:14:01;;;;;;;3.80;3.50;;;27.20;79.80;;;;;;5093881;28;21113;-95
2022/07/25 07:16:30;;;;;;;6.53;3.77;;;27.30;80.30;;;;;;5096533;28;21078;-95
2022/07/25 07:18:57;;;;;;;3.87;3.50;;;27.30;80.30;;;;;;5098386;28;20438;-92
2022/07/25 07:21:23;;;;;;;6.23;3.40;;;27.40;80.60;;;;;;5100044;28;20844;-93
2022/07/25 07:23:52;;;;;;;3.20;3.00;;;27.40;79.70;;;;;;5110781;28;20471;-93
2022/07/25 07:26:18;;;;;;;4.37;4.07;;;27.50;79.20;;;;;;5100045;28;20447;-93
2022/07/25 07:28:43;;;;;;;5.80;4.20;;;27.60;78.50;;;;;;5103098;28;20501;-92
2022/07/25 07:31:09;;;;;;;4.20;3.40;;;27.70;77.90;;;;;;5093919;28;20180;-93
2022/07/25 07:33:37;;;;;;;3.40;3.10;;;27.80;77.30;;;;;;5100678;28;20183;-93
2022/07/25 07:36:02;;;;;;;3.57;3.27;;;27.90;77.10;;;;;;5110797;28;20184;-92
2022/07/25 07:38:28;;;;;;;3.83;3.10;;;28.00;75.90;;;;;;5115287;28;20432;-92
2022/07/25 07:40:54;;;;;;;2.90;2.70;;;28.10;75.40;;;;;;5102990;28;20189;-92
2022/07/25 07:43:20;;;;;;;3.23;3.03;;;28.10;75.40;;;;;;5119252;27;20641;-91
2022/07/25 07:45:46;;;;;;;3.50;3.20;;;28.20;75.20;;;;;;5105421;28;20599;-93
2022/07/25 07:48:11;;;;;;;5.53;2.77;;;28.30;76.80;;;;;;5112149;28;20452;-93
2022/07/25 07:50:37;;;;;;;4.33;3.13;;;28.30;77.00;;;;;;5103980;28;20470;-94
2022/07/25 07:53:03;;;;;;;5.43;3.53;;;28.40;76.90;;;;;;5106598;28;20259;-93
2022/07/25 07:55:45;;;;;;;3.70;3.40;;;28.50;75.10;;;;;;5104058;28;20211;-93
2022/07/25 07:58:14;;;;;;;3.33;3.03;;;28.50;73.80;;;;;;5095688;28;20208;-94
2022/07/25 08:00:40;;;;;;;3.03;2.73;;;28.60;74.20;;;;;;5097066;28;20457;-94
2022/07/25 08:03:07;;;;;;;3.80;2.40;;;28.70;74.50;;;;;;5110045;28;20921;-94
2022/07/25 08:05:37;;;;;;;3.30;3.00;;;28.80;75.00;;;;;;5106181;28;20486;-94
2022/07/25 08:08:04;;;;;;;3.10;2.80;;;28.80;76.00;;;;;;5094656;28;20976;-94
2022/07/25 08:10:31;;;;;;;3.17;2.83;;;28.80;73.10;;;;;;5108883;28;20460;-93
2022/07/25 08:12:58;;;;;;;2.77;2.57;;;29.00;73.00;;;;;;5101830;28;20459;-94
2022/07/25 08:15:25;;;;;;;3.97;2.87;;;29.10;72.90;;;;;;5096312;28;20440;-93
2022/07/25 08:17:54;;;;;;;3.53;3.13;;;29.20;71.90;;;;;;5086841;28;20556;-93
2022/07/25 08:20:23;;;;;;;4.50;3.23;;;29.30;71.80;;;;;;5096508;28;21228;-95
2022/07/25 08:22:50;;;;;;;3.03;2.83;;;29.40;72.30;;;;;;5091475;28;20999;-93
2022/07/25 08:25:20;;;;;;;3.03;2.83;;;29.50;71.90;;;;;;5098275;28;20433;-94
2022/07/25 08:27:47;;;;;;;3.30;3.00;;;29.60;72.70;;;;;;5096664;28;20455;-94
2022/07/25 08:30:14;;;;;;;2.60;2.40;;;29.60;72.00;;;;;;5097635;28;20415;-94
2022/07/25 08:32:51;;;;;;;5.30;3.40;;;29.70;71.30;;;;;;5103856;28;20508;-93
2022/07/25 08:35:18;;;;;;;3.00;2.80;;;29.80;70.80;;;;;;5103678;28;20442;-94
2022/07/25 08:37:45;;;;;;;4.37;2.97;;;29.90;70.60;;;;;;5107504;27;20464;-92
2022/07/25 08:40:14;;;;;;;4.13;3.40;;;30.00;70.20;;;;;;5099937;28;20922;-94
2022/07/25 08:42:40;;;;;;;3.17;2.80;;;30.10;70.80;;;;;;5104117;28;20491;-94
2022/07/25 08:45:07;;;;;;;2.70;2.50;;;30.10;70.50;;;;;;5102691;28;20443;-94
2022/07/25 08:47:34;;;;;;;3.33;3.03;;;30.20;71.00;;;;;;5101222;28;20985;-93
2022/07/25 08:50:03;;;;;;;3.17;2.93;;;30.30;70.30;;;;;;5097709;28;20428;-94
2022/07/25 08:52:30;;;;;;;2.70;2.50;;;30.40;69.90;;;;;;5102792;28;21571;-93
2022/07/25 08:54:57;;;;;;;3.07;2.87;;;30.50;69.90;;;;;;5095882;28;20437;-92
2022/07/25 08:57:22;;;;;;;4.00;3.03;;;30.50;69.90;;;;;;5098005;28;21009;-94
2022/07/25 08:59:48;;;;;;;4.13;3.77;;;30.60;69.60;;;;;;5098678;28;20491;-92
2022/07/25 09:02:14;;;;;;;3.47;3.20;;;30.70;69.40;;;;;;5103978;28;20199;-93
2022/07/25 09:04:42;;;;;;;3.70;3.40;;;30.80;69.50;;;;;;5102996;28;20238;-93
2022/07/25 09:07:08;;;;;;;4.73;3.20;;;30.90;69.20;;;;;;5107033;27;20613;-95
2022/07/25 09:09:35;;;;;;;6.20;3.73;;;30.90;68.50;;;;;;5097403;28;20759;-94
2022/07/25 09:12:05;;;;;;;4.37;3.97;;;31.00;68.80;;;;;;5099630;28;20498;-94
2022/07/25 09:14:39;;;;;;;5.33;3.80;;;31.10;69.10;;;;;;5101344;28;20433;-94
2022/07/25 09:17:06;;;;;;;4.10;3.80;;;31.10;69.10;;;;;;5102353;28;20803;-95
2022/07/25 09:19:32;;;;;;;5.20;4.70;;;31.30;70.10;;;;;;5099509;28;20481;-95
2022/07/25 09:22:06;;;;;;;3.77;3.47;;;31.40;69.00;;;;;;5103889;28;20479;-94
2022/07/25 09:24:35;;;;;;;8.47;4.47;;;31.50;69.10;;;;;;5107058;27;20680;-94
2022/07/25 09:27:08;;;;;;;4.80;3.97;;;31.60;68.60;;;;;;5094345;28;20520;-95
2022/07/25 09:29:37;;;;;;;4.43;3.73;;;31.70;68.80;;;;;;5106307;28;20425;-95
2022/07/25 09:32:15;;;;;;;4.30;3.90;;;31.80;68.80;;;;;;5111384;28;20458;-94
2022/07/25 09:34:43;;;;;;;3.53;3.23;;;31.90;68.50;;;;;;5109630;28;20426;-94
2022/07/25 09:37:12;;;;;;;4.03;3.57;;;32.10;69.50;;;;;;5102801;28;20485;-93
2022/07/25 09:39:49;;;;;;;4.47;4.07;;;32.20;68.50;;;;;;5106599;28;20940;-94
2022/07/25 09:42:23;;;;;;;4.53;3.97;;;32.40;68.60;;;;;;5108195;28;20542;-95
2022/07/25 09:45:03;;;;;;;5.00;4.60;;;32.50;68.60;;;;;;5105957;28;20491;-93
2022/07/25 09:47:30;;;;;;;3.80;3.50;;;32.60;69.00;;;;;;5125311;27;20988;-94
2022/07/25 09:50:03;;;;;;;5.60;3.93;;;32.60;69.40;;;;;;5098271;28;20432;-94
2022/07/25 09:52:28;;;;;;;4.83;4.40;;;32.50;69.90;;;;;;5107205;28;20468;-94
2022/07/25 09:54:54;;;;;;;7.37;4.70;;;32.30;70.30;;;;;;5105321;28;20438;-94
2022/07/25 09:57:22;;;;;;;4.70;4.30;;;32.40;69.30;;;;;;5107452;28;20223;-94
2022/07/25 09:59:48;;;;;;;6.17;4.83;;;32.50;70.00;;;;;;5095262;28;20188;-94
2022/07/25 10:02:51;;;;;;;5.00;4.50;;;32.60;69.20;;;;;;5101455;28;21261;-93
2022/07/25 10:05:56;;;;;;;4.70;4.30;;;32.70;68.80;;;;;;5105119;28;20490;-94
2022/07/25 10:08:23;;;;;;;4.53;4.13;;;32.90;68.00;;;;;;5109444;28;20510;-95
2022/07/25 10:10:49;;;;;;;19.13;15.07;;;33.00;67.30;;;;;;5096488;28;20493;-93
2022/07/25 10:13:27;;;;;;;7.60;5.90;;;32.90;67.30;;;;;;5103188;28;20806;-94
2022/07/25 10:15:53;;;;;;;5.43;5.00;;;33.00;67.60;;;;;;5102147;28;20397;-94
2022/07/25 10:18:21;;;;;;;6.00;4.90;;;33.10;67.40;;;;;;5097809;28;20460;-95
2022/07/25 10:20:50;;;;;;;4.70;4.13;;;33.10;67.00;;;;;;5099533;28;20220;-95
2022/07/25 10:23:25;;;;;;;4.80;4.30;;;33.10;68.10;;;;;;5107011;28;20448;-94
2022/07/25 10:26:06;;;;;;;5.80;4.57;;;33.20;68.30;;;;;;5101855;28;20475;-94
2022/07/25 10:28:49;;;;;;;5.47;5.00;;;33.20;67.80;;;;;;5110972;28;20519;-95
2022/07/25 10:31:22;;;;;;;6.10;5.57;;;33.20;68.50;;;;;;5103796;28;20421;-94
2022/07/25 10:33:54;;;;;;;5.30;4.80;;;33.20;68.10;;;;;;5098901;28;21261;-94
2022/07/25 10:36:21;;;;;;;5.50;4.70;;;33.30;68.80;;;;;;5094532;28;20455;-93
2022/07/25 10:38:49;;;;;;;5.97;5.37;;;33.40;67.80;;;;;;5096939;28;20519;-94
2022/07/25 10:41:15;;;;;;;5.20;4.50;;;33.40;67.30;;;;;;5095463;28;20744;-93
2022/07/25 10:43:44;;;;;;;5.43;4.90;;;33.40;67.50;;;;;;5095490;28;20861;-94
2022/07/25 10:46:21;;;;;;;6.03;5.43;;;33.40;67.10;;;;;;5103811;28;20487;-95
2022/07/25 10:48:59;;;;;;;5.80;5.30;;;33.40;67.10;;;;;;5106075;28;20429;-92
2022/07/25 10:51:31;;;;;;;5.53;4.73;;;33.40;67.40;;;;;;5099699;28;20531;-94
2022/07/25 10:53:57;;;;;;;5.07;4.57;;;33.30;67.50;;;;;;5101074;28;20436;-95
2022/07/25 10:56:27;;;;;;;5.23;4.73;;;33.30;67.60;;;;;;5104277;28;20463;-95
2022/07/25 10:59:00;;;;;;;5.77;5.17;;;33.30;67.50;;;;;;5097958;28;20439;-94
2022/07/25 11:01:35;;;;;;;5.80;4.50;;;33.40;67.40;;;;;;5111378;28;20448;-93
2022/07/25 11:04:13;;;;;;;5.80;5.20;;;33.40;67.00;;;;;;5106465;28;20495;-94
2022/07/25 11:06:40;;;;;;;5.27;4.77;;;33.40;66.80;;;;;;5104007;28;20201;-94
2022/07/25 11:09:17;;;;;;;6.77;4.83;;;33.40;67.00;;;;;;5100923;28;20476;-94
2022/07/25 11:11:49;;;;;;;5.50;5.00;;;33.40;66.70;;;;;;5106815;28;20996;-93
2022/07/25 11:14:23;;;;;;;5.60;5.00;;;33.20;66.30;;;;;;5112456;28;20451;-94
2022/07/25 11:16:51;;;;;;;6.60;5.20;;;33.10;66.90;;;;;;5108704;28;20447;-93
2022/07/25 11:19:17;;;;;;;5.40;4.97;;;33.00;66.40;;;;;;5112051;28;20871;-94
2022/07/25 11:21:49;;;;;;;5.40;4.90;;;33.00;66.90;;;;;;5106136;28;20972;-95
2022/07/25 11:24:15;;;;;;;6.03;4.87;;;32.90;66.80;;;;;;5101008;28;21149;-95
2022/07/25 11:26:55;;;;;;;5.60;5.10;;;32.90;66.80;;;;;;5103627;28;20794;-93
2022/07/25 11:29:23;;;;;;;5.93;5.33;;;32.80;66.70;;;;;;5107935;28;20178;-94
2022/07/25 11:32:07;;;;;;;5.90;5.40;;;32.80;66.90;;;;;;5094425;28;20472;-94
2022/07/25 11:34:43;;;;;;;5.60;5.10;;;32.70;67.10;;;;;;5103520;28;20885;-95
2022/07/25 11:37:11;;;;;;;5.50;5.00;;;32.70;67.30;;;;;;5098722;28;20477;-94
2022/07/25 11:39:42;;;;;;;5.63;5.13;;;32.60;66.70;;;;;;5108347;28;20446;-93
2022/07/25 11:42:09;;;;;;;5.20;4.70;;;32.60;66.90;;;;;;5102398;28;20952;-93
2022/07/25 11:44:36;;;;;;;6.50;5.67;;;32.60;66.50;;;;;;5115488;27;20480;-94
2022/07/25 11:47:04;;;;;;;5.50;5.00;;;32.60;67.00;;;;;;5106428;28;20444;-93
2022/07/25 11:49:30;;;;;;;5.70;5.20;;;32.60;66.50;;;;;;5096819;28;20444;-95
2022/07/25 11:51:55;;;;;;;5.07;4.57;;;32.60;66.80;;;;;;5102678;28;20459;-93
2022/07/25 11:54:21;;;;;;;6.60;4.70;;;32.60;66.50;;;;;;5104976;28;20283;-94
2022/07/25 11:56:47;;;;;;;6.70;4.70;;;32.60;66.40;;;;;;5103408;28;20207;-93
2022/07/25 11:59:13;;;;;;;6.60;5.00;;;32.60;66.60;;;;;;5098117;28;20198;-94
2022/07/25 12:01:41;;;;;;;5.00;4.60;;;32.60;66.30;;;;;;5111508;28;20291;-96
2022/07/25 12:04:15;;;;;;;4.60;4.20;;;32.50;66.80;;;;;;5111800;28;20527;-94
2022/07/25 12:06:49;;;;;;;5.10;4.60;;;32.50;67.90;;;;;;5107732;28;20455;-93
2022/07/25 12:09:20;;;;;;;5.43;5.00;;;32.50;67.70;;;;;;5092725;28;20492;-94
2022/07/25 12:11:47;;;;;;;4.97;4.50;;;32.50;67.30;;;;;;5098201;28;20708;-95
2022/07/25 12:14:15;;;;;;;4.43;4.03;;;32.50;66.90;;;;;;5094421;28;20421;-94
2022/07/25 12:16:41;;;;;;;4.60;4.20;;;32.60;65.80;;;;;;5104347;28;20838;-94
2022/07/25 12:19:20;;;;;;;5.27;4.53;;;32.70;65.40;;;;;;5104191;28;20482;-94
2022/07/25 12:21:46;;;;;;;5.40;4.90;;;32.70;65.10;;;;;;5106037;28;20451;-95
2022/07/25 12:24:12;;;;;;;4.67;4.27;;;32.70;65.20;;;;;;5099741;28;20544;-94
2022/07/25 12:26:37;;;;;;;4.50;4.10;;;32.70;65.10;;;;;;5101249;28;20541;-92
2022/07/25 12:29:03;;;;;;;6.30;5.33;;;32.70;65.20;;;;;;5096640;28;20177;-90
2022/07/25 12:31:29;;;;;;;5.23;4.73;;;32.80;64.60;;;;;;5102006;28;20215;-93
2022/07/25 12:33:55;;;;;;;4.50;4.10;;;32.70;64.40;;;;;;5110153;28;20192;-92
2022/07/25 12:36:26;;;;;;;4.73;4.30;;;32.70;64.60;;;;;;5106005;28;20203;-94
2022/07/25 12:38:52;;;;;;;4.27;3.70;;;32.80;64.50;;;;;;5105150;28;20267;-94
2022/07/25 12:41:21;;;;;;;4.90;4.40;;;32.80;64.40;;;;;;5101333;28;20529;-94
2022/07/25 12:43:47;;;;;;;4.83;4.43;;;32.80;64.40;;;;;;5107497;28;20459;-95
2022/07/25 12:46:12;;;;;;;5.47;4.80;;;32.70;64.60;;;;;;5106068;28;20514;-95